createdAt,value
2018-08-03T00:02:06.836Z,81.32
2018-08-03T00:04:36.773Z,81.15
2018-08-03T00:07:06.222Z,81.22
2018-08-03T00:09:35.578Z,81.34
2018-08-03T00:12:04.934Z,81.42
2018-08-03T00:14:34.268Z,81.62
2018-08-03T00:17:03.616Z,81.61
2018-08-03T00:19:33.164Z,81.84
2018-08-03T00:22:02.562Z,81.32
2018-08-03T00:24:31.996Z,82.21
2018-08-03T00:27:01.386Z,81.71
2018-08-03T00:29:30.790Z,81.90
2018-08-03T00:32:00.170Z,81.65
2018-08-03T00:34:29.684Z,82.21
2018-08-03T00:36:59.098Z,82.49
2018-08-03T00:39:28.500Z,82.49
2018-08-03T00:41:57.866Z,82.53
2018-08-03T00:44:27.280Z,82.82
2018-08-03T00:46:56.618Z,82.74
2018-08-03T00:49:25.958Z,82.84
2018-08-03T00:51:55.512Z,83.11
2018-08-03T00:54:24.892Z,83.20
2018-08-03T00:56:54.413Z,83.56
2018-08-03T00:59:23.780Z,83.64
2018-08-03T01:01:53.166Z,83.23
2018-08-03T01:04:23.345Z,82.99
2018-08-03T01:06:53.244Z,83.58
2018-08-03T01:09:23.330Z,83.81
2018-08-03T01:11:53.433Z,84.31
2018-08-03T01:14:23.428Z,83.83
2018-08-03T01:16:53.522Z,83.27
2018-08-03T01:19:23.396Z,84.38
2018-08-03T01:21:53.342Z,84.58
2018-08-03T01:24:23.520Z,84.73
2018-08-03T01:26:53.491Z,84.70
2018-08-03T01:29:23.589Z,84.25
2018-08-03T01:31:53.785Z,84.64
2018-08-03T01:34:23.713Z,84.69
2018-08-03T01:36:53.676Z,84.34
2018-08-03T01:39:23.833Z,84.84
2018-08-03T01:41:53.787Z,84.32
2018-08-03T01:44:23.814Z,85.37
2018-08-03T01:46:53.894Z,84.93
2018-08-03T01:49:23.915Z,85.61
2018-08-03T01:51:54.077Z,85.73
2018-08-03T01:54:23.957Z,85.36
2018-08-03T01:56:54.011Z,85.28
2018-08-03T01:59:23.936Z,84.91
2018-08-03T02:01:54.103Z,86.10
2018-08-03T02:04:24.089Z,85.37
2018-08-03T02:06:54.099Z,85.42
2018-08-03T02:09:24.190Z,85.23
2018-08-03T02:11:54.164Z,85.60
2018-08-03T02:14:24.174Z,85.95
2018-08-03T02:16:54.165Z,86.49
2018-08-03T02:19:24.226Z,85.64
2018-08-03T02:21:54.323Z,86.26
2018-08-03T02:24:24.238Z,86.15
2018-08-03T02:26:54.581Z,85.97
2018-08-03T02:29:24.275Z,86.58
2018-08-03T02:31:54.235Z,86.22
2018-08-03T02:34:24.273Z,86.54
2018-08-03T02:36:54.253Z,86.78
2018-08-03T02:39:24.372Z,86.82
2018-08-03T02:41:54.293Z,86.87
2018-08-03T02:44:24.457Z,87.27
2018-08-03T02:46:54.446Z,87.04
2018-08-03T02:49:24.491Z,87.81
2018-08-03T02:51:54.399Z,87.63
2018-08-03T02:54:24.379Z,87.17
2018-08-03T02:56:54.559Z,86.68
2018-08-03T02:59:24.563Z,86.78
2018-08-03T03:01:54.502Z,88.27
2018-08-03T03:04:24.457Z,88.89
2018-08-03T03:06:54.501Z,90.98
2018-08-03T03:09:24.543Z,90.65
2018-08-03T03:11:54.594Z,91.05
2018-08-03T03:14:24.736Z,91.50
2018-08-03T03:16:54.536Z,92.42
2018-08-03T03:19:24.519Z,92.13
2018-08-03T03:21:54.627Z,92.99
2018-08-03T03:24:24.550Z,93.32
2018-08-03T03:26:54.664Z,93.87
2018-08-03T03:29:24.839Z,93.65
2018-08-03T03:31:54.619Z,93.98
2018-08-03T03:34:24.925Z,93.88
2018-08-03T03:36:54.723Z,94.08
2018-08-03T03:39:24.841Z,93.02
2018-08-03T03:41:54.793Z,93.32
2018-08-03T03:44:25.060Z,92.79
2018-08-03T03:46:55.014Z,93.04
2018-08-03T03:49:25.018Z,94.01
2018-08-03T03:51:54.935Z,93.22
2018-08-03T03:54:25.033Z,93.63
2018-08-03T03:56:55.014Z,93.90
2018-08-03T03:59:25.113Z,94.24
2018-08-03T04:01:55.102Z,93.86
2018-08-03T04:04:25.018Z,93.93
2018-08-03T04:06:55.015Z,93.79
2018-08-03T04:09:25.163Z,94.25
2018-08-03T04:11:55.113Z,92.23
2018-08-03T04:14:24.393Z,93.01
2018-08-03T04:16:53.633Z,92.64
2018-08-03T04:19:22.855Z,93.07
2018-08-03T04:21:52.144Z,92.94
2018-08-03T04:24:21.384Z,92.51
2018-08-03T04:26:50.641Z,91.87
2018-08-03T04:29:19.859Z,92.08
2018-08-03T04:31:49.126Z,91.69
2018-08-03T04:34:18.304Z,91.17
2018-08-03T04:36:47.543Z,90.67
2018-08-03T04:39:16.841Z,92.05
2018-08-03T04:41:46.088Z,92.28
2018-08-03T04:44:15.291Z,91.78
2018-08-03T04:46:44.566Z,91.84
2018-08-03T04:49:13.749Z,91.56
2018-08-03T04:51:42.949Z,92.58
2018-08-03T04:54:12.164Z,92.31
2018-08-03T04:56:41.618Z,92.08
2018-08-03T04:59:10.883Z,92.20
2018-08-03T05:01:40.108Z,92.39
2018-08-03T05:04:09.412Z,92.34
2018-08-03T05:06:39.253Z,92.48
2018-08-03T05:09:08.730Z,92.73
2018-08-03T05:11:37.987Z,91.70
2018-08-03T05:14:07.352Z,92.10
2018-08-03T05:16:36.606Z,92.25
2018-08-03T05:19:05.985Z,91.32
2018-08-03T05:21:35.353Z,91.11
2018-08-03T05:24:04.670Z,91.98
2018-08-03T05:26:34.013Z,91.45
2018-08-03T05:29:03.240Z,91.30
2018-08-03T05:31:32.492Z,91.52
2018-08-03T05:34:01.770Z,91.34
2018-08-03T05:36:31.057Z,91.15
2018-08-03T05:39:00.364Z,90.62
2018-08-03T05:41:29.718Z,90.01
2018-08-03T05:43:58.951Z,90.02
2018-08-03T05:46:28.128Z,91.03
2018-08-03T05:48:57.350Z,90.39
2018-08-03T05:51:26.570Z,90.12
2018-08-03T05:53:56.022Z,90.00
2018-08-03T05:56:25.978Z,89.89
2018-08-03T05:58:56.079Z,89.25
2018-08-03T06:01:26.106Z,89.35
2018-08-03T06:03:56.080Z,90.02
2018-08-03T06:06:26.174Z,89.09
2018-08-03T06:08:56.192Z,88.91
2018-08-03T06:11:26.210Z,88.46
2018-08-03T06:13:56.124Z,89.16
2018-08-03T06:16:26.196Z,87.96
2018-08-03T06:18:56.292Z,88.11
2018-08-03T06:21:26.252Z,87.30
2018-08-03T06:23:56.260Z,87.20
2018-08-03T06:26:26.352Z,87.32
2018-08-03T06:28:56.371Z,86.73
2018-08-03T06:31:26.460Z,87.49
2018-08-03T06:33:56.288Z,86.76
2018-08-03T06:36:26.748Z,87.12
2018-08-03T06:38:56.533Z,86.36
2018-08-03T06:41:26.547Z,86.48
2018-08-03T06:43:56.586Z,85.51
2018-08-03T06:46:26.725Z,85.23
2018-08-03T06:48:56.613Z,84.84
2018-08-03T06:51:26.657Z,84.54
2018-08-03T06:53:56.698Z,84.09
2018-08-03T06:56:26.761Z,83.82
2018-08-03T06:58:56.630Z,82.65
2018-08-03T07:01:26.644Z,83.21
2018-08-03T07:03:56.699Z,81.45
2018-08-03T07:06:26.694Z,82.23
2018-08-03T07:08:56.870Z,81.34
2018-08-03T07:11:26.839Z,81.05
2018-08-03T07:13:56.806Z,80.05
2018-08-03T07:16:26.895Z,80.99
2018-08-03T07:18:56.855Z,80.34
2018-08-03T07:21:27.499Z,79.99
2018-08-03T07:23:57.575Z,80.34
2018-08-03T07:26:26.966Z,79.62
2018-08-03T07:28:57.747Z,80.42
2018-08-03T07:31:27.130Z,79.60
2018-08-03T07:33:57.160Z,79.01
2018-08-03T07:36:27.029Z,78.67
2018-08-03T07:38:56.992Z,77.87
2018-08-03T07:41:26.977Z,77.62
2018-08-03T07:43:57.145Z,76.92
2018-08-03T07:46:27.481Z,76.85
2018-08-03T07:48:57.208Z,76.33
2018-08-03T07:51:27.149Z,75.26
2018-08-03T07:53:57.195Z,73.87
2018-08-03T07:56:27.142Z,74.80
2018-08-03T07:58:57.153Z,74.98
2018-08-03T08:01:27.289Z,74.07
2018-08-03T08:03:57.297Z,73.02
2018-08-03T08:06:27.335Z,73.31
2018-08-03T08:08:57.340Z,72.48
2018-08-03T08:11:27.272Z,73.23
2018-08-03T08:13:57.604Z,71.95
2018-08-03T08:16:27.326Z,71.47
2018-08-03T08:18:57.494Z,72.31
2018-08-03T08:21:27.501Z,71.79
2018-08-03T08:23:57.409Z,72.04
2018-08-03T08:26:27.421Z,70.93
2018-08-03T08:28:57.461Z,73.21
2018-08-03T08:31:27.430Z,71.21
2018-08-03T08:33:57.429Z,72.34
2018-08-03T08:36:27.902Z,70.96
2018-08-03T08:38:57.475Z,71.01
2018-08-03T08:41:27.488Z,70.49
2018-08-03T08:43:57.587Z,69.84
2018-08-03T08:46:27.553Z,69.94
2018-08-03T08:48:57.644Z,70.36
2018-08-03T08:51:27.594Z,69.63
2018-08-03T08:53:57.727Z,68.39
2018-08-03T08:56:27.636Z,66.97
2018-08-03T08:58:57.716Z,67.15
2018-08-03T09:01:27.749Z,67.85
2018-08-03T09:03:57.653Z,68.03
2018-08-03T09:06:28.855Z,66.74
2018-08-03T09:08:58.130Z,67.15
2018-08-03T09:11:27.762Z,67.21
2018-08-03T09:13:57.736Z,67.69
2018-08-03T09:19:26.365Z,65.72
2018-08-03T09:21:55.490Z,66.13
2018-08-03T09:24:24.752Z,65.71
2018-08-03T09:26:53.849Z,66.39
2018-08-03T09:29:23.066Z,66.85
2018-08-03T09:31:52.225Z,67.44
2018-08-03T09:34:21.415Z,65.26
2018-08-03T09:36:50.613Z,64.69
2018-08-03T09:39:19.766Z,64.23
2018-08-03T09:41:48.926Z,62.97
2018-08-03T09:44:18.183Z,63.17
2018-08-03T09:46:47.644Z,62.34
2018-08-03T09:49:16.866Z,63.60
2018-08-03T09:51:46.130Z,63.30
2018-08-03T09:54:15.309Z,62.24
2018-08-03T09:56:44.623Z,60.94
2018-08-03T09:59:13.801Z,60.82
2018-08-03T10:01:42.966Z,59.20
2018-08-03T10:04:12.219Z,58.99
2018-08-03T10:06:41.349Z,59.69
2018-08-03T10:09:10.518Z,61.38
2018-08-03T10:11:39.764Z,61.07
2018-08-03T10:14:08.955Z,59.87
2018-08-03T10:16:38.089Z,60.45
2018-08-03T10:19:07.470Z,59.37
2018-08-03T10:21:36.687Z,58.19
2018-08-03T10:24:05.848Z,57.55
2018-08-03T10:26:35.017Z,56.07
2018-08-03T10:29:04.145Z,55.42
2018-08-03T10:31:33.270Z,55.99
2018-08-03T10:34:02.467Z,56.60
2018-08-03T10:36:31.599Z,55.69
2018-08-03T10:39:00.742Z,54.86
2018-08-03T10:41:29.895Z,54.29
2018-08-03T10:43:59.059Z,57.62
2018-08-03T10:46:28.597Z,55.45
2018-08-03T10:48:58.616Z,56.83
2018-08-03T10:51:28.725Z,54.90
2018-08-03T10:53:58.643Z,53.07
2018-08-03T10:56:28.667Z,53.93
2018-08-03T10:58:57.994Z,53.76
2018-08-03T11:01:27.408Z,54.22
2018-08-03T11:03:56.631Z,53.31
2018-08-03T11:06:25.764Z,53.97
2018-08-03T11:08:54.930Z,55.44
2018-08-03T11:11:24.178Z,53.36
2018-08-03T11:13:53.334Z,53.53
2018-08-03T11:16:22.711Z,51.47
2018-08-03T11:18:51.886Z,52.54
2018-08-03T11:21:21.077Z,51.23
2018-08-03T11:23:50.217Z,50.77
2018-08-03T11:26:19.476Z,52.17
2018-08-03T11:28:48.749Z,53.92
2018-08-03T11:31:18.000Z,52.66
2018-08-03T11:33:47.331Z,51.89
2018-08-03T11:36:16.528Z,51.47
2018-08-03T11:38:45.765Z,52.05
2018-08-03T11:41:14.915Z,52.22
2018-08-03T11:43:44.239Z,49.74
2018-08-03T11:46:13.555Z,49.93
2018-08-03T11:48:42.853Z,48.28
2018-08-03T11:51:12.033Z,50.41
2018-08-03T11:53:41.319Z,51.79
2018-08-03T11:56:10.564Z,49.34
2018-08-03T11:58:39.922Z,49.33
2018-08-03T12:01:09.118Z,49.60
2018-08-03T12:03:38.334Z,49.80
2018-08-03T12:06:07.557Z,51.81
2018-08-03T12:08:36.768Z,49.81
2018-08-03T12:11:05.912Z,49.22
2018-08-03T12:13:35.131Z,47.44
2018-08-03T12:16:04.442Z,46.77
2018-08-03T12:18:33.756Z,45.49
2018-08-03T12:21:02.908Z,48.06
2018-08-03T12:23:32.114Z,46.54
2018-08-03T12:26:01.230Z,46.44
2018-08-03T12:28:30.560Z,43.63
2018-08-03T12:30:59.830Z,46.53
2018-08-03T12:33:29.574Z,45.50
2018-08-03T12:35:59.600Z,46.68
2018-08-03T12:38:29.652Z,46.87
2018-08-03T12:40:59.711Z,45.21
2018-08-03T12:43:29.798Z,45.97
2018-08-03T12:45:59.812Z,45.06
2018-08-03T12:48:29.830Z,46.68
2018-08-03T12:50:59.776Z,45.88
2018-08-03T12:53:29.881Z,43.56
2018-08-03T12:55:59.885Z,44.74
2018-08-03T12:58:30.027Z,45.19
2018-08-03T13:01:00.075Z,45.22
2018-08-03T13:03:29.991Z,45.62
2018-08-03T13:06:00.248Z,46.96
2018-08-03T13:08:30.372Z,45.62
2018-08-03T13:11:00.118Z,46.39
2018-08-03T13:13:30.160Z,45.82
2018-08-03T13:16:00.032Z,46.95
2018-08-03T13:18:30.105Z,46.54
2018-08-03T13:21:00.254Z,48.42
2018-08-03T13:23:30.200Z,47.86
2018-08-03T13:26:00.256Z,47.43
2018-08-03T13:28:30.268Z,45.36
2018-08-03T13:31:00.221Z,46.58
2018-08-03T13:33:30.350Z,45.25
2018-08-03T13:36:00.295Z,44.86
2018-08-03T13:38:30.289Z,47.15
2018-08-03T13:41:00.435Z,44.39
2018-08-03T13:43:30.404Z,45.81
2018-08-03T13:46:00.478Z,44.54
2018-08-03T13:48:30.473Z,45.58
2018-08-03T13:51:00.449Z,41.97
2018-08-03T13:53:30.460Z,42.98
2018-08-03T13:56:00.517Z,42.73
2018-08-03T13:58:30.518Z,43.45
2018-08-03T14:01:11.701Z,42.46
2018-08-03T14:03:41.034Z,40.19
2018-08-03T14:06:10.262Z,39.75
2018-08-03T14:08:39.413Z,41.30
2018-08-03T14:11:08.625Z,40.93
2018-08-03T14:13:37.778Z,38.84
2018-08-03T14:16:07.168Z,38.86
2018-08-03T14:18:36.422Z,38.27
2018-08-03T14:21:05.635Z,37.92
2018-08-03T14:23:34.875Z,37.75
2018-08-03T14:26:04.137Z,36.69
2018-08-03T14:28:33.679Z,39.84
2018-08-03T14:31:02.917Z,40.03
2018-08-03T14:33:32.128Z,40.04
2018-08-03T14:36:01.303Z,39.43
2018-08-03T14:38:30.997Z,39.48
2018-08-03T14:41:01.108Z,39.40
2018-08-03T14:43:31.090Z,38.95
2018-08-03T14:46:01.170Z,37.71
2018-08-03T14:48:31.225Z,38.76
2018-08-03T14:51:01.207Z,38.37
2018-08-03T14:53:31.318Z,38.89
2018-08-03T14:56:01.329Z,41.33
2018-08-03T14:58:31.296Z,41.72
2018-08-03T15:01:01.370Z,41.35
2018-08-03T15:03:31.297Z,41.66
2018-08-03T15:06:01.283Z,42.06
2018-08-03T15:08:31.447Z,42.29
2018-08-03T15:11:01.430Z,42.31
2018-08-03T15:13:31.476Z,40.54
2018-08-03T15:16:01.589Z,41.08
2018-08-03T15:18:31.598Z,41.07
2018-08-03T15:21:01.479Z,41.46
2018-08-03T15:23:31.637Z,40.38
2018-08-03T15:26:01.511Z,40.98
2018-08-03T15:28:31.494Z,42.29
2018-08-03T15:31:01.663Z,42.59
2018-08-03T15:33:31.620Z,42.49
2018-08-03T15:36:08.062Z,43.42
2018-08-03T15:38:37.216Z,44.21
2018-08-03T15:41:06.417Z,44.27
2018-08-03T15:43:35.700Z,44.65
2018-08-03T15:46:04.953Z,44.70
2018-08-03T15:48:34.281Z,44.47
2018-08-03T15:51:03.532Z,44.55
2018-08-03T15:53:32.852Z,45.50
2018-08-03T15:56:02.040Z,45.64
2018-08-03T15:58:31.840Z,46.02
2018-08-03T16:01:01.894Z,46.11
2018-08-03T16:03:32.178Z,46.29
2018-08-03T16:06:01.968Z,46.16
2018-08-03T16:08:32.127Z,46.69
2018-08-03T16:11:02.004Z,46.26
2018-08-03T16:13:32.048Z,46.15
2018-08-03T16:16:02.191Z,45.92
2018-08-03T16:18:32.171Z,45.16
2018-08-03T16:21:02.088Z,44.85
2018-08-03T16:23:32.136Z,44.90
2018-08-03T16:26:02.225Z,44.76
2018-08-03T16:28:32.337Z,44.78
2018-08-03T16:31:02.275Z,44.96
2018-08-03T16:33:32.396Z,47.83
2018-08-03T16:36:02.490Z,47.01
2018-08-03T16:38:32.001Z,46.97
2018-08-03T16:41:01.200Z,46.22
2018-08-03T16:43:30.383Z,45.48
2018-08-03T16:46:00.207Z,45.91
2018-08-03T16:48:29.674Z,45.86
2018-08-03T16:50:58.954Z,47.18
2018-08-03T16:53:28.403Z,46.02
2018-08-03T16:55:57.540Z,46.95
2018-08-03T16:58:26.776Z,46.07
2018-08-03T17:00:55.960Z,46.46
2018-08-03T17:03:25.156Z,46.56
2018-08-03T17:05:54.360Z,46.87
2018-08-03T17:08:23.542Z,47.80
2018-08-03T17:10:52.718Z,47.02
2018-08-03T17:13:21.898Z,47.37
2018-08-03T17:15:51.130Z,48.28
2018-08-03T17:18:20.410Z,47.62
2018-08-03T17:20:49.515Z,47.67
2018-08-03T17:23:18.741Z,48.05
2018-08-03T17:25:48.034Z,46.79
2018-08-03T17:28:17.322Z,47.86
2018-08-03T17:30:46.545Z,47.22
2018-08-03T17:33:15.683Z,47.58
2018-08-03T17:35:44.956Z,47.93
2018-08-03T17:38:14.310Z,47.72
2018-08-03T17:40:43.541Z,48.10
2018-08-03T17:43:12.880Z,48.52
2018-08-03T17:45:42.200Z,48.66
2018-08-03T17:48:11.301Z,48.65
2018-08-03T17:50:40.469Z,48.15
2018-08-03T17:53:09.849Z,48.34
2018-08-03T17:55:39.013Z,47.99
2018-08-03T17:58:08.305Z,47.76
2018-08-03T18:00:37.484Z,47.49
2018-08-03T18:03:06.778Z,48.75
2018-08-03T18:05:35.981Z,48.88
2018-08-03T18:08:05.181Z,49.15
2018-08-03T18:10:34.489Z,49.23
2018-08-03T18:13:03.823Z,49.50
2018-08-03T18:15:34.026Z,49.91
2018-08-03T18:18:04.310Z,49.67
2018-08-03T18:20:34.256Z,50.30
2018-08-03T18:23:04.195Z,50.46
2018-08-03T18:25:34.021Z,50.65
2018-08-03T18:28:04.180Z,51.39
2018-08-03T18:30:34.202Z,52.96
2018-08-03T18:33:04.277Z,53.24
2018-08-03T18:35:34.779Z,53.64
2018-08-03T18:38:05.765Z,54.59
2018-08-03T18:40:35.112Z,55.08
2018-08-03T18:43:04.513Z,54.98
2018-08-03T18:45:34.332Z,56.06
2018-08-03T18:48:04.498Z,56.13
2018-08-03T18:50:34.516Z,55.71
2018-08-03T18:53:04.584Z,55.51
2018-08-03T18:55:34.852Z,55.70
2018-08-03T18:58:04.664Z,56.48
2018-08-03T19:00:35.595Z,57.51
2018-08-03T19:03:04.884Z,56.76
2018-08-03T19:05:34.553Z,57.93
2018-08-03T19:08:04.773Z,58.30
2018-08-03T19:10:34.577Z,57.79
2018-08-03T19:13:04.898Z,59.74
2018-08-03T19:15:34.685Z,60.91
2018-08-03T19:18:04.913Z,60.59
2018-08-03T19:20:34.785Z,61.20
2018-08-03T19:23:04.893Z,61.53
2018-08-03T19:25:34.801Z,61.80
2018-08-03T19:28:04.888Z,63.05
2018-08-03T19:30:35.078Z,63.10
2018-08-03T19:33:05.126Z,62.97
2018-08-03T19:35:35.071Z,63.95
2018-08-03T19:38:05.396Z,63.61
2018-08-03T19:40:35.060Z,63.72
2018-08-03T19:43:05.082Z,64.26
2018-08-03T19:45:35.140Z,65.34
2018-08-03T19:48:05.260Z,64.77
2018-08-03T19:50:35.200Z,65.28
2018-08-03T19:53:05.405Z,65.92
2018-08-03T19:55:35.326Z,66.06
2018-08-03T19:58:05.342Z,66.59
2018-08-03T20:00:35.483Z,66.67
2018-08-03T20:03:05.352Z,67.28
2018-08-03T20:05:35.279Z,67.66
2018-08-03T20:08:05.628Z,67.16
2018-08-03T20:10:35.430Z,67.26
2018-08-03T20:13:05.587Z,67.28
2018-08-03T20:15:35.576Z,65.79
2018-08-03T20:18:05.576Z,63.94
2018-08-03T20:20:35.612Z,63.71
2018-08-03T20:23:05.516Z,63.45
2018-08-03T20:25:35.657Z,63.00
2018-08-03T20:28:05.789Z,62.27
2018-08-03T20:30:35.616Z,61.94
2018-08-03T20:33:05.624Z,61.35
2018-08-03T20:35:35.700Z,61.06
2018-08-03T20:38:06.433Z,61.23
2018-08-03T20:40:35.715Z,60.63
2018-08-03T20:43:06.494Z,61.23
2018-08-03T20:45:35.980Z,60.71
2018-08-03T20:48:05.849Z,60.54
2018-08-03T20:50:36.020Z,60.17
2018-08-03T20:53:05.969Z,61.06
2018-08-03T20:55:35.804Z,61.25
2018-08-03T20:58:05.861Z,61.45
2018-08-03T21:00:36.040Z,62.71
2018-08-03T21:03:06.006Z,63.82
2018-08-03T21:05:36.259Z,64.62
2018-08-03T21:08:06.134Z,65.01
2018-08-03T21:10:36.148Z,64.83
2018-08-03T21:13:06.162Z,66.26
2018-08-03T21:15:36.156Z,66.47
2018-08-03T21:18:06.065Z,66.67
2018-08-03T21:20:36.087Z,67.36
2018-08-03T21:23:06.344Z,67.65
2018-08-03T21:25:36.243Z,67.52
2018-08-03T21:28:06.212Z,68.03
2018-08-03T21:30:36.313Z,68.57
2018-08-03T21:33:06.383Z,68.06
2018-08-03T21:35:36.349Z,68.54
2018-08-03T21:38:06.441Z,68.12
2018-08-03T21:40:36.300Z,67.84
2018-08-03T21:43:06.472Z,67.35
2018-08-03T21:45:36.440Z,66.77
2018-08-03T21:48:06.477Z,66.39
2018-08-03T21:50:36.484Z,66.56
2018-08-03T21:53:06.773Z,66.72
2018-08-03T21:55:36.660Z,67.19
2018-08-03T21:58:06.678Z,66.97
2018-08-03T22:00:36.958Z,66.68
2018-08-03T22:03:06.670Z,67.97
2018-08-03T22:05:36.594Z,69.12
2018-08-03T22:08:06.634Z,70.62
2018-08-03T22:10:36.742Z,71.20
2018-08-03T22:13:06.759Z,71.29
2018-08-03T22:15:36.714Z,70.79
2018-08-03T22:18:06.778Z,72.21
2018-08-03T22:20:36.784Z,72.52
2018-08-03T22:23:06.934Z,72.66
2018-08-03T22:25:36.852Z,72.25
2018-08-03T22:28:07.186Z,72.67
2018-08-03T22:30:36.971Z,72.09
2018-08-03T22:33:06.881Z,71.20
2018-08-03T22:35:37.018Z,71.20
2018-08-03T22:38:07.161Z,71.13
2018-08-03T22:40:37.041Z,70.90
2018-08-03T22:43:07.376Z,71.11
2018-08-03T22:45:37.087Z,70.49
2018-08-03T22:48:07.318Z,69.94
2018-08-03T22:50:37.639Z,70.56
2018-08-03T22:53:07.315Z,71.37
2018-08-03T22:55:37.432Z,71.70
2018-08-03T22:58:07.292Z,71.82
2018-08-03T23:00:37.342Z,71.92
2018-08-03T23:03:07.259Z,72.23
2018-08-03T23:05:37.377Z,73.02
2018-08-03T23:08:07.392Z,73.94
2018-08-03T23:10:37.427Z,74.17
2018-08-03T23:13:07.430Z,73.91
2018-08-03T23:15:37.407Z,74.72
2018-08-03T23:18:07.603Z,75.01
2018-08-03T23:20:37.508Z,75.83
2018-08-03T23:23:07.540Z,75.21
2018-08-03T23:25:37.768Z,75.94
2018-08-03T23:28:07.694Z,75.86
2018-08-03T23:30:37.674Z,76.11
2018-08-03T23:33:07.681Z,75.75
2018-08-03T23:35:37.942Z,76.73
2018-08-03T23:38:07.833Z,75.87
2018-08-03T23:40:37.776Z,76.08
2018-08-03T23:43:07.854Z,75.81
2018-08-03T23:45:37.873Z,76.47
2018-08-03T23:48:07.921Z,76.17
2018-08-03T23:50:38.082Z,76.75
2018-08-03T23:53:08.047Z,77.09
2018-08-03T23:55:37.991Z,77.22
2018-08-03T23:58:08.124Z,77.22
